createdAt,value
2018-11-14T00:00:42.553Z,60.40
2018-11-14T00:03:12.143Z,60.40
2018-11-14T00:05:40.012Z,60.60
2018-11-14T00:08:07.833Z,60.50
2018-11-14T00:10:35.721Z,60.30
2018-11-14T00:13:03.544Z,60.50
2018-11-14T00:15:32.347Z,60.40
2018-11-14T00:18:01.169Z,60.50
2018-11-14T00:20:29.036Z,60.60
2018-11-14T00:22:56.872Z,60.50
2018-11-14T00:25:25.717Z,60.70
2018-11-14T00:27:53.599Z,60.50
2018-11-14T00:30:24.063Z,60.50
2018-11-14T00:32:53.759Z,60.40
2018-11-14T00:35:24.262Z,60.40
2018-11-14T00:37:56.232Z,60.40
2018-11-14T00:40:28.417Z,60.60
2018-11-14T00:42:57.897Z,60.60
2018-11-14T00:45:39.587Z,60.70
2018-11-14T00:48:08.447Z,60.60
2018-11-14T00:50:36.278Z,60.50
2018-11-14T00:53:05.102Z,60.10
2018-11-14T00:55:32.937Z,60.50
2018-11-14T00:58:00.766Z,60.50
2018-11-14T01:00:28.588Z,60.60
2018-11-14T01:02:56.406Z,60.70
2018-11-14T01:05:24.282Z,60.50
2018-11-14T01:07:52.105Z,60.40
2018-11-14T01:10:21.833Z,60.30
2018-11-14T01:12:50.274Z,60.10
2018-11-14T01:15:20.575Z,60.00
2018-11-14T01:17:51.287Z,59.90
2018-11-14T01:20:22.866Z,60.10
2018-11-14T01:22:50.694Z,60.20
2018-11-14T01:25:20.274Z,60.20
2018-11-14T01:27:53.892Z,60.20
2018-11-14T01:33:03.470Z,60.50
2018-11-14T01:35:37.481Z,60.30
2018-11-14T01:38:14.536Z,60.40
2018-11-14T01:40:45.274Z,60.40
2018-11-14T01:43:13.632Z,60.40
2018-11-14T01:45:44.749Z,60.40
2018-11-14T01:48:12.665Z,60.30
2018-11-14T01:50:40.494Z,60.40
2018-11-14T01:53:09.323Z,60.30
2018-11-14T01:55:38.053Z,60.30
2018-11-14T01:58:06.154Z,60.20
2018-11-14T02:00:34.966Z,60.20
2018-11-14T02:03:03.680Z,60.20
2018-11-14T02:05:31.495Z,60.20
2018-11-14T02:07:59.332Z,60.30
2018-11-14T02:10:28.022Z,60.30
2018-11-14T02:12:58.061Z,60.40
2018-11-14T02:15:26.841Z,60.40
2018-11-14T02:17:57.995Z,60.30
2018-11-14T02:20:27.128Z,61.00
2018-11-14T02:22:58.153Z,60.20
2018-11-14T02:25:31.603Z,60.30
2018-11-14T02:28:02.088Z,60.30
2018-11-14T02:30:31.619Z,60.20
2018-11-14T02:33:01.192Z,60.30
2018-11-14T02:35:34.200Z,60.00
2018-11-14T02:38:09.673Z,60.30
2018-11-14T02:40:38.582Z,60.30
2018-11-14T02:43:09.412Z,60.30
2018-11-14T02:45:37.246Z,60.10
2018-11-14T02:48:05.099Z,60.30
2018-11-14T02:50:32.947Z,60.30
2018-11-14T02:53:00.773Z,60.30
2018-11-14T02:55:28.521Z,60.20
2018-11-14T02:57:56.360Z,60.10
2018-11-14T03:00:27.320Z,60.30
2018-11-14T03:02:57.141Z,60.30
2018-11-14T03:05:26.805Z,60.00
2018-11-14T03:07:55.975Z,60.10
2018-11-14T03:10:25.816Z,60.20
2018-11-14T03:12:56.303Z,60.10
2018-11-14T03:15:24.132Z,60.90
2018-11-14T03:17:53.987Z,60.20
2018-11-14T03:20:25.795Z,60.20
2018-11-14T03:22:57.617Z,60.10
2018-11-14T03:25:27.005Z,60.20
2018-11-14T03:27:56.329Z,60.00
2018-11-14T03:30:25.459Z,60.00
2018-11-14T03:32:53.299Z,60.10
2018-11-14T03:35:21.669Z,60.00
2018-11-14T03:37:49.505Z,60.00
2018-11-14T03:40:17.638Z,60.00
2018-11-14T03:42:46.389Z,59.90
2018-11-14T03:45:14.961Z,59.90
2018-11-14T03:47:42.917Z,59.90
2018-11-14T03:50:11.734Z,59.70
2018-11-14T03:52:40.331Z,60.10
2018-11-14T03:55:08.183Z,59.90
2018-11-14T03:57:37.088Z,59.90
2018-11-14T04:00:08.228Z,59.90
2018-11-14T04:02:36.607Z,60.60
2018-11-14T04:05:07.579Z,60.00
2018-11-14T04:07:37.031Z,60.00
2018-11-14T04:10:09.032Z,59.80
2018-11-14T04:12:41.744Z,59.70
2018-11-14T04:15:15.161Z,60.50
2018-11-14T04:17:44.296Z,59.90
2018-11-14T04:20:15.320Z,59.90
2018-11-14T04:22:43.948Z,60.50
2018-11-14T04:25:14.511Z,59.90
2018-11-14T04:27:43.166Z,59.90
2018-11-14T04:30:12.264Z,59.70
2018-11-14T04:32:41.426Z,59.70
2018-11-14T04:35:10.614Z,59.50
2018-11-14T04:37:38.674Z,60.00
2018-11-14T04:40:07.378Z,59.70
2018-11-14T04:42:35.273Z,59.70
2018-11-14T04:45:04.119Z,59.70
2018-11-14T04:47:32.891Z,59.50
2018-11-14T04:50:01.763Z,59.50
2018-11-14T04:52:30.524Z,59.40
2018-11-14T04:54:59.792Z,59.30
2018-11-14T04:57:27.652Z,59.30
2018-11-14T04:59:56.381Z,59.30
2018-11-14T05:02:25.168Z,59.40
2018-11-14T05:04:53.007Z,59.50
2018-11-14T05:07:20.834Z,60.30
2018-11-14T05:09:48.669Z,59.60
2018-11-14T05:12:16.531Z,59.50
2018-11-14T05:14:45.066Z,59.50
2018-11-14T05:17:14.268Z,59.50
2018-11-14T05:19:43.323Z,59.40
2018-11-14T05:22:12.041Z,59.30
2018-11-14T05:24:39.959Z,59.30
2018-11-14T05:27:08.701Z,59.30
2018-11-14T05:29:37.423Z,59.30
2018-11-14T05:32:05.249Z,59.20
2018-11-14T05:34:33.075Z,59.20
2018-11-14T05:37:01.825Z,59.20
2018-11-14T05:39:29.686Z,59.20
2018-11-14T05:41:57.521Z,59.10
2018-11-14T05:44:25.356Z,59.20
2018-11-14T05:46:53.198Z,59.10
2018-11-14T05:49:21.916Z,59.20
2018-11-14T05:51:50.713Z,59.20
2018-11-14T05:54:18.546Z,59.10
2018-11-14T05:56:46.363Z,59.20
2018-11-14T05:59:16.108Z,59.10
2018-11-14T06:01:44.521Z,59.10
2018-11-14T06:04:14.253Z,59.10
2018-11-14T06:06:42.235Z,59.10
2018-11-14T06:09:13.766Z,59.10
2018-11-14T06:11:42.740Z,59.00
2018-11-14T06:14:11.637Z,58.90
2018-11-14T06:16:39.462Z,58.90
2018-11-14T06:19:07.280Z,58.80
2018-11-14T06:21:35.108Z,58.90
2018-11-14T06:24:04.134Z,59.00
2018-11-14T06:26:31.951Z,59.00
2018-11-14T06:29:00.906Z,59.00
2018-11-14T06:31:29.639Z,58.90
2018-11-14T06:33:58.359Z,58.70
2018-11-14T06:36:26.231Z,58.90
2018-11-14T06:38:55.072Z,58.80
2018-11-14T06:41:22.949Z,59.10
2018-11-14T06:43:50.823Z,58.80
2018-11-14T06:46:19.673Z,58.90
2018-11-14T06:48:48.514Z,58.90
2018-11-14T06:51:17.267Z,59.60
2018-11-14T06:53:45.973Z,58.90
2018-11-14T06:56:14.348Z,58.90
2018-11-14T06:58:42.222Z,58.80
2018-11-14T07:01:11.120Z,58.70
2018-11-14T07:03:39.520Z,58.70
2018-11-14T07:06:07.765Z,58.80
2018-11-14T07:08:35.475Z,58.80
2018-11-14T07:11:04.297Z,58.80
2018-11-14T07:13:33.151Z,58.80
2018-11-14T07:16:01.888Z,59.10
2018-11-14T07:18:29.714Z,59.00
2018-11-14T07:20:57.531Z,58.90
2018-11-14T07:23:25.349Z,58.90
2018-11-14T07:25:53.158Z,58.90
2018-11-14T07:28:20.977Z,59.00
2018-11-14T07:30:48.823Z,59.00
2018-11-14T07:33:16.647Z,58.90
2018-11-14T07:35:45.177Z,58.80
2018-11-14T07:38:46.421Z,58.80
2018-11-14T07:41:15.885Z,58.80
2018-11-14T07:43:44.610Z,59.60
2018-11-14T07:46:12.852Z,59.00
2018-11-14T07:48:40.934Z,59.00
2018-11-14T07:51:08.726Z,59.00
2018-11-14T07:53:36.592Z,58.90
2018-11-14T07:56:04.451Z,58.90
2018-11-14T07:58:32.405Z,59.10
2018-11-14T08:01:01.355Z,59.00
2018-11-14T08:03:29.212Z,59.00
2018-11-14T08:05:58.234Z,59.00
2018-11-14T08:08:27.147Z,59.00
2018-11-14T08:10:55.837Z,59.00
2018-11-14T08:13:25.843Z,59.20
2018-11-14T08:15:55.282Z,59.10
2018-11-14T08:18:23.262Z,59.10
2018-11-14T08:20:51.971Z,59.10
2018-11-14T08:23:20.709Z,59.10
2018-11-14T08:25:49.603Z,59.20
2018-11-14T08:28:18.352Z,59.20
2018-11-14T08:30:47.222Z,59.20
2018-11-14T08:33:15.855Z,59.10
2018-11-14T08:35:45.317Z,59.20
2018-11-14T08:38:14.782Z,59.10
2018-11-14T08:40:42.659Z,59.10
2018-11-14T08:43:11.649Z,59.10
2018-11-14T08:45:39.509Z,59.00
2018-11-14T08:48:08.979Z,58.90
2018-11-14T08:50:36.939Z,59.00
2018-11-14T08:53:05.194Z,59.10
2018-11-14T08:55:34.053Z,59.10
2018-11-14T08:58:02.826Z,59.20
2018-11-14T09:00:31.981Z,59.40
2018-11-14T09:03:00.741Z,59.10
2018-11-14T09:05:29.440Z,59.10
2018-11-14T09:07:58.127Z,59.10
2018-11-14T09:10:27.001Z,59.00
2018-11-14T09:12:54.777Z,59.00
2018-11-14T09:15:24.683Z,59.10
2018-11-14T09:17:52.509Z,59.10
2018-11-14T09:20:21.757Z,59.20
2018-11-14T09:22:49.564Z,59.10
2018-11-14T09:25:20.390Z,59.20
2018-11-14T09:27:48.179Z,59.10
2018-11-14T09:30:18.147Z,59.10
2018-11-14T09:32:45.984Z,59.30
2018-11-14T09:35:15.413Z,59.20
2018-11-14T09:37:44.401Z,59.20
2018-11-14T09:40:13.599Z,59.20
2018-11-14T09:42:41.429Z,59.20
2018-11-14T09:45:11.374Z,59.20
2018-11-14T09:47:39.195Z,59.20
2018-11-14T09:50:13.589Z,59.30
2018-11-14T09:52:42.759Z,59.40
2018-11-14T09:55:11.337Z,59.40
2018-11-14T09:57:39.954Z,59.40
2018-11-14T10:00:09.695Z,59.30
2018-11-14T10:02:38.576Z,59.30
2018-11-14T10:05:08.386Z,59.40
2018-11-14T10:07:36.208Z,59.40
2018-11-14T10:10:05.851Z,59.40
2018-11-14T10:12:33.699Z,59.40
2018-11-14T10:15:02.546Z,59.40
2018-11-14T10:17:30.371Z,59.40
2018-11-14T10:19:58.204Z,59.40
2018-11-14T10:22:26.034Z,59.50
2018-11-14T10:24:54.050Z,60.20
2018-11-14T10:27:21.891Z,59.50
2018-11-14T10:29:49.735Z,59.50
2018-11-14T10:32:18.476Z,59.50
2018-11-14T10:34:46.289Z,59.60
2018-11-14T10:37:15.039Z,59.60
2018-11-14T10:39:44.740Z,59.10
2018-11-14T10:42:14.345Z,59.60
2018-11-14T10:44:42.764Z,59.60
2018-11-14T10:47:10.601Z,59.70
2018-11-14T10:49:39.487Z,59.60
2018-11-14T10:52:07.309Z,59.60
2018-11-14T10:54:35.151Z,59.70
2018-11-14T10:57:02.973Z,59.80
2018-11-14T10:59:31.701Z,59.80
2018-11-14T11:02:04.915Z,59.90
2018-11-14T11:04:38.093Z,59.80
2018-11-14T11:07:11.334Z,59.80
2018-11-14T11:09:44.680Z,59.70
2018-11-14T11:12:18.099Z,59.80
2018-11-14T11:14:51.280Z,59.90
2018-11-14T11:17:26.253Z,59.90
2018-11-14T11:19:54.115Z,60.00
2018-11-14T11:22:21.940Z,60.00
2018-11-14T11:24:49.761Z,59.80
2018-11-14T11:27:18.483Z,59.90
2018-11-14T11:29:47.185Z,59.80
2018-11-14T11:32:15.942Z,59.60
2018-11-14T11:34:45.472Z,59.50
2018-11-14T11:37:15.267Z,59.50
2018-11-14T11:39:44.354Z,59.60
2018-11-14T11:42:13.501Z,59.70
2018-11-14T11:44:42.215Z,59.70
2018-11-14T11:47:10.076Z,59.70
2018-11-14T11:49:38.782Z,59.80
2018-11-14T11:52:07.652Z,59.80
2018-11-14T11:54:36.209Z,59.70
2018-11-14T11:57:05.237Z,59.70
2018-11-14T11:59:34.157Z,59.70
2018-11-14T12:02:02.915Z,59.70
2018-11-14T12:04:31.768Z,59.80
2018-11-14T12:07:00.497Z,59.80
2018-11-14T12:09:29.195Z,59.90
2018-11-14T12:11:57.925Z,59.90
2018-11-14T12:14:26.694Z,59.80
2018-11-14T12:16:55.583Z,59.90
2018-11-14T12:19:24.432Z,59.80
2018-11-14T12:21:53.281Z,59.90
2018-11-14T12:24:21.991Z,59.90
2018-11-14T12:26:50.714Z,59.90
2018-11-14T12:29:19.475Z,60.70
2018-11-14T12:31:48.160Z,60.00
2018-11-14T12:34:16.907Z,60.70
2018-11-14T12:36:46.401Z,59.90
2018-11-14T12:39:16.376Z,60.00
2018-11-14T12:41:46.325Z,60.00
2018-11-14T12:44:15.591Z,60.00
2018-11-14T12:46:45.020Z,60.00
2018-11-14T12:49:14.337Z,60.10
2018-11-14T12:51:43.486Z,60.20
2018-11-14T12:54:12.195Z,60.80
2018-11-14T12:56:40.910Z,60.80
2018-11-14T12:59:09.638Z,60.00
2018-11-14T13:01:38.345Z,60.10
2018-11-14T13:04:06.338Z,60.30
2018-11-14T13:06:35.194Z,60.40
2018-11-14T13:09:03.302Z,60.40
2018-11-14T13:11:31.123Z,60.40
2018-11-14T13:13:58.945Z,60.50
2018-11-14T13:16:26.782Z,60.50
2018-11-14T13:18:54.600Z,60.50
2018-11-14T13:21:22.485Z,60.60
2018-11-14T13:23:50.315Z,60.70
2018-11-14T13:26:18.130Z,60.80
2018-11-14T13:28:45.953Z,60.70
2018-11-14T13:31:14.875Z,60.70
2018-11-14T13:33:42.710Z,60.50
2018-11-14T13:36:10.566Z,60.50
2018-11-14T13:38:38.408Z,60.50
2018-11-14T13:41:07.059Z,60.40
2018-11-14T13:43:35.728Z,60.50
2018-11-14T13:46:04.581Z,60.50
2018-11-14T13:48:32.414Z,60.60
2018-11-14T13:51:01.208Z,60.40
2018-11-14T13:53:29.879Z,60.30
2018-11-14T13:55:58.572Z,60.30
2018-11-14T13:58:27.289Z,60.10
2018-11-14T14:00:55.115Z,60.10
2018-11-14T14:03:23.889Z,60.10
2018-11-14T14:05:52.630Z,60.10
2018-11-14T14:08:21.185Z,60.10
2018-11-14T14:10:49.850Z,60.00
2018-11-14T14:13:18.643Z,60.10
2018-11-14T14:15:47.444Z,60.20
2018-11-14T14:18:15.711Z,60.40
2018-11-14T14:20:45.601Z,60.30
2018-11-14T14:23:14.099Z,60.20
2018-11-14T14:25:42.835Z,60.20
2018-11-14T14:28:12.092Z,60.20
2018-11-14T14:30:40.905Z,60.20
2018-11-14T14:33:09.662Z,60.30
2018-11-14T14:35:38.503Z,60.50
2018-11-14T14:38:06.450Z,60.50
2018-11-14T14:40:34.297Z,60.40
2018-11-14T14:43:03.014Z,60.30
2018-11-14T14:45:31.764Z,60.30
2018-11-14T14:48:00.584Z,60.40
2018-11-14T14:50:29.347Z,60.50
2018-11-14T14:52:58.053Z,60.80
2018-11-14T14:55:26.835Z,60.90
2018-11-14T14:57:54.660Z,60.90
2018-11-14T15:00:26.877Z,60.90
2018-11-14T15:02:55.731Z,60.80
2018-11-14T15:05:23.518Z,60.90
2018-11-14T15:07:51.660Z,60.70
2018-11-14T15:10:21.716Z,60.70
2018-11-14T15:12:50.533Z,60.80
2018-11-14T15:15:18.832Z,60.80
2018-11-14T15:17:46.653Z,60.80
2018-11-14T15:20:18.214Z,60.80
2018-11-14T15:22:46.083Z,60.70
2018-11-14T15:25:16.995Z,60.70
2018-11-14T15:27:46.079Z,60.80
2018-11-14T15:30:17.080Z,60.90
2018-11-14T15:32:45.990Z,61.00
2018-11-14T15:35:14.642Z,61.00
2018-11-14T15:37:42.401Z,60.90
2018-11-14T15:40:11.986Z,60.80
2018-11-14T15:42:39.897Z,60.70
2018-11-14T15:45:08.804Z,60.80
2018-11-14T15:47:37.618Z,61.50
2018-11-14T15:50:06.402Z,60.80
2018-11-14T15:52:34.224Z,60.80
2018-11-14T15:55:02.045Z,60.70
2018-11-14T15:57:29.878Z,60.70
2018-11-14T15:59:57.709Z,60.70
2018-11-14T16:02:25.558Z,60.70
2018-11-14T16:04:53.368Z,60.70
2018-11-14T16:07:21.209Z,60.60
2018-11-14T16:09:49.055Z,60.50
2018-11-14T16:12:16.897Z,60.40
2018-11-14T16:14:45.765Z,60.30
2018-11-14T16:17:13.941Z,60.60
2018-11-14T16:19:41.767Z,60.60
2018-11-14T16:22:09.912Z,60.60
2018-11-14T16:24:37.878Z,60.50
2018-11-14T16:27:06.766Z,60.40
2018-11-14T16:29:35.606Z,60.30
2018-11-14T16:32:04.281Z,60.20
2018-11-14T16:34:33.017Z,60.10
2018-11-14T16:37:00.973Z,60.00
2018-11-14T16:39:28.754Z,59.90
2018-11-14T16:41:56.533Z,59.90
2018-11-14T16:44:24.374Z,59.90
2018-11-14T16:46:52.215Z,60.10
2018-11-14T16:49:20.044Z,60.40
2018-11-14T16:51:47.870Z,60.30
2018-11-14T16:54:15.775Z,60.00
2018-11-14T16:56:44.311Z,60.10
2018-11-14T16:59:12.151Z,60.10
2018-11-14T17:01:39.979Z,60.00
2018-11-14T17:04:07.799Z,60.00
2018-11-14T17:06:35.657Z,59.80
2018-11-14T17:09:05.171Z,59.90
2018-11-14T17:11:32.999Z,59.70
2018-11-14T17:14:00.820Z,59.50
2018-11-14T17:16:28.667Z,59.50
2018-11-14T17:18:56.480Z,59.60
2018-11-14T17:21:24.316Z,59.60
2018-11-14T17:23:52.148Z,59.70
2018-11-14T17:26:20.932Z,59.50
2018-11-14T17:28:48.763Z,59.50
2018-11-14T17:31:16.589Z,59.50
2018-11-14T17:33:45.090Z,60.10
2018-11-14T17:36:14.415Z,59.50
2018-11-14T17:38:42.278Z,59.70
2018-11-14T17:41:10.122Z,59.80
2018-11-14T17:43:39.681Z,59.80
2018-11-14T17:46:07.638Z,59.80
2018-11-14T17:48:35.477Z,59.60
2018-11-14T17:51:03.297Z,59.70
2018-11-14T17:53:32.186Z,59.60
2018-11-14T17:56:00.932Z,59.60
2018-11-14T17:58:28.774Z,59.40
2018-11-14T18:01:02.416Z,59.50
2018-11-14T18:03:31.143Z,59.20
2018-11-14T18:05:59.032Z,59.30
2018-11-14T18:08:26.881Z,59.20
2018-11-14T18:10:54.704Z,59.20
2018-11-14T18:13:22.541Z,59.20
2018-11-14T18:15:50.357Z,59.30
2018-11-14T18:18:22.580Z,59.40
2018-11-14T18:20:52.517Z,59.50
2018-11-14T18:23:21.702Z,59.30
2018-11-14T18:25:57.237Z,59.10
2018-11-14T18:28:25.981Z,59.10
2018-11-14T18:30:54.705Z,59.00
2018-11-14T18:33:23.433Z,59.00
2018-11-14T18:35:52.147Z,58.80
2018-11-14T18:38:19.984Z,58.90
2018-11-14T18:40:48.818Z,58.90
2018-11-14T18:43:16.645Z,58.70
2018-11-14T18:45:45.545Z,59.40
2018-11-14T18:48:15.018Z,58.80
2018-11-14T18:50:42.825Z,58.80
2018-11-14T18:53:11.690Z,58.60
2018-11-14T18:55:40.417Z,58.80
2018-11-14T18:58:08.255Z,58.70
2018-11-14T19:00:36.388Z,58.50
2018-11-14T19:03:04.368Z,58.40
2018-11-14T19:05:33.147Z,58.40
2018-11-14T19:08:01.040Z,58.50
2018-11-14T19:10:31.225Z,58.60
2018-11-14T19:12:59.056Z,58.50
2018-11-14T19:15:31.140Z,58.50
2018-11-14T19:17:59.997Z,58.50
2018-11-14T19:20:29.113Z,58.40
2018-11-14T19:22:58.711Z,58.30
2018-11-14T19:25:30.807Z,58.40
2018-11-14T19:27:59.728Z,58.30
2018-11-14T19:30:30.016Z,58.40
2018-11-14T19:32:58.451Z,58.30
2018-11-14T19:35:27.282Z,58.20
2018-11-14T19:37:56.092Z,58.20
2018-11-14T19:40:26.223Z,58.20
2018-11-14T19:42:55.715Z,58.30
2018-11-14T19:45:27.761Z,58.30
2018-11-14T19:47:56.633Z,58.10
2018-11-14T19:50:25.048Z,58.20
2018-11-14T19:52:53.354Z,58.20
2018-11-14T19:55:22.417Z,58.50
2018-11-14T19:57:51.584Z,58.40
2018-11-14T20:00:23.065Z,58.40
2018-11-14T20:02:51.801Z,58.40
2018-11-14T20:05:20.158Z,58.10
2018-11-14T20:07:48.084Z,58.10
2018-11-14T20:10:18.305Z,58.20
2018-11-14T20:12:47.644Z,58.10
2018-11-14T20:15:17.802Z,57.90
2018-11-14T20:17:47.404Z,58.00
2018-11-14T20:20:24.747Z,58.20
2018-11-14T20:22:52.554Z,58.20
2018-11-14T20:25:21.323Z,58.20
2018-11-14T20:27:50.172Z,58.00
2018-11-14T20:30:23.872Z,58.10
2018-11-14T20:32:52.391Z,58.00
2018-11-14T20:35:21.237Z,58.00
2018-11-14T20:37:49.103Z,58.00
2018-11-14T20:40:18.560Z,58.50
2018-11-14T20:42:48.177Z,58.10
2018-11-14T20:45:17.470Z,57.90
2018-11-14T20:47:46.960Z,57.70
2018-11-14T20:50:18.474Z,57.80
2018-11-14T20:52:46.840Z,57.80
2018-11-14T20:55:15.353Z,57.70
2018-11-14T20:57:44.883Z,57.60
2018-11-14T21:00:15.441Z,57.80
2018-11-14T21:02:44.534Z,57.80
2018-11-14T21:05:14.303Z,57.80
2018-11-14T21:07:44.838Z,57.80
2018-11-14T21:10:18.000Z,57.70
2018-11-14T21:12:46.110Z,57.60
2018-11-14T21:15:16.795Z,57.70
2018-11-14T21:17:45.491Z,57.60
2018-11-14T21:20:14.077Z,58.10
2018-11-14T21:22:42.392Z,57.80
2018-11-14T21:25:11.241Z,57.60
2018-11-14T21:27:39.804Z,57.70
2018-11-14T21:30:08.499Z,57.20
2018-11-14T21:32:36.338Z,57.50
2018-11-14T21:35:04.572Z,57.50
2018-11-14T21:37:32.429Z,57.70
2018-11-14T21:40:00.264Z,57.60
2018-11-14T21:42:28.132Z,57.70
2018-11-14T21:44:55.955Z,57.50
2018-11-14T21:47:29.319Z,57.40
2018-11-14T21:49:57.207Z,57.60
2018-11-14T21:52:26.163Z,57.40
2018-11-14T21:54:53.985Z,57.50
2018-11-14T21:57:21.806Z,57.60
2018-11-14T21:59:49.780Z,57.60
2018-11-14T22:02:18.666Z,57.40
2018-11-14T22:04:46.511Z,57.50
2018-11-14T22:07:16.338Z,57.60
2018-11-14T22:09:45.349Z,57.40
2018-11-14T22:12:13.767Z,57.50
2018-11-14T22:14:41.737Z,57.30
2018-11-14T22:17:10.471Z,57.50
2018-11-14T22:19:38.337Z,57.60
2018-11-14T22:22:06.178Z,57.70
2018-11-14T22:24:34.899Z,57.50
2018-11-14T22:27:02.746Z,57.50
2018-11-14T22:29:30.574Z,57.60
2018-11-14T22:31:58.409Z,57.50
2018-11-14T22:34:27.290Z,57.50
2018-11-14T22:36:55.999Z,57.40
2018-11-14T22:39:23.833Z,57.50
2018-11-14T22:41:51.665Z,57.50
2018-11-14T22:44:19.491Z,57.50
2018-11-14T22:46:48.371Z,57.50
2018-11-14T22:49:17.052Z,57.70
2018-11-14T22:51:45.793Z,57.60
2018-11-14T22:54:15.256Z,57.40
2018-11-14T22:56:43.471Z,57.20
2018-11-14T22:59:12.335Z,57.30
2018-11-14T23:01:41.055Z,57.50
2018-11-14T23:04:08.913Z,57.50
2018-11-14T23:06:36.735Z,57.30
2018-11-14T23:09:07.216Z,57.30
2018-11-14T23:11:35.053Z,57.20
2018-11-14T23:14:03.796Z,57.20
2018-11-14T23:16:32.502Z,57.20
2018-11-14T23:19:01.231Z,57.50
2018-11-14T23:21:29.104Z,57.30
2018-11-14T23:23:58.045Z,57.30
2018-11-14T23:26:26.932Z,57.30
2018-11-14T23:28:55.796Z,57.10
2018-11-14T23:31:24.503Z,57.10
2018-11-14T23:33:53.217Z,57.20
2018-11-14T23:36:21.906Z,57.50
2018-11-14T23:38:49.722Z,57.20
2018-11-14T23:41:18.544Z,57.10
2018-11-14T23:43:47.271Z,57.10
2018-11-14T23:46:15.964Z,57.10
2018-11-14T23:48:45.279Z,57.20
2018-11-14T23:51:14.820Z,57.20
2018-11-14T23:53:44.374Z,57.30
2018-11-14T23:56:12.196Z,57.40
2018-11-14T23:58:40.904Z,57.30
